Airfield :
LOGIN :

Register | Disclaimer

   EN    FR    IT 

 










Legend :    VFR   Marginal VFR   IFR   Intensive IFR   Very Intensive IFR
Visi :
Ceiling :
>= 8 km
>= 3000ft
5 to 8 km
1000 to 3000 ft
1500m to 5 km
500 to 1000 ft
800 to 1500m
200 to 500 ft
< 800m
< 200 ft
Symbols :   Thunderstorms  Fog  Heavy snow  Heavy precipitations  Wind > 20 kt
SIGMETs :     Misc.  Thunderstorms  Icing  Turbulence  Mountain Waves  Volcanic Ashes






- Airport Elevation : 1115 ft
- IATA code : GRZ


LOWG - Graz

CURRENT METAR :
  • 020750Z VRB02KT 9999 FEW060 23/17 Q1012 NOSIG

EXPIRED METARs :
  • 020720Z VRB02KT CAVOK 22/18 Q1012 NOSIG
  • 020650Z VRB02KT 9999 FEW040 21/17 Q1012 NOSIG
  • 020620Z VRB01KT CAVOK 20/17 Q1012 NOSIG
  • 020550Z VRB01KT 9999 FEW008 19/16 Q1012 NOSIG
  • 020520Z VRB01KT 9999 FEW002 18/16 Q1012 NOSIG

TAF TAF LOWG
Valid from the 02 at 06:00 until the 03 at 06:00 UTC


020515Z 0206/0306 VRB02KT CAVOK TX27/0212Z TN18/0303Z
TEMPO 0210/0219 SCT050 FEW050CB
TEMPO 0213/0218 VRB15G25KT -TSRA SCT025 BKN040CB
PROB30
TEMPO 0215/0217 4000 TSRA
PROB30
TEMPO 0222/0305 35012KT 4000 TSRA BKN060CB



MET'MAP, your aeronautical weather chart ! - Copyright ORBIFLY December 2007 - Disclaimer

ORBIFLY MET'MAP TEAM :

Programming & Development : Alexandra Zaïnal
Concept & original design : Baudouin d'Aumeries
Assistance for programming : Marc-Olivier Méhu
Technical & hardware support : Manuel Goepfert

Contact : metmap@orbifly.com




SOURCES & CREDITS :

   NOAA